Time;durP1;ratioP1;P1;durP2;ratioP2;P2;SDS_P1;SDS_P2;PMS_P1;PMS_P2;Temp;Humidity;BMP_temperature;BMP_pressure;BME280_temperature;BME280_humidity;BME280_pressure;Samples;Min_cycle;Max_cycle;Signal;HPM_P1;HPM_P2
2022/02/08 00:00:52;;;;;;;;;6.75;4.75;;;;;18.83;33.29;102742.44;5058769;28;46389;-64
2022/02/08 00:03:20;;;;;;;;;4.00;3.00;;;;;18.84;33.74;102732.81;5059314;28;45234;-64
2022/02/08 00:05:56;;;;;;;;;4.00;4.00;;;;;18.82;33.54;102722.31;5059534;28;45335;-64
2022/02/08 00:08:22;;;;;;;;;5.50;2.75;;;;;18.82;33.58;102722.31;5058992;28;45485;-63
2022/02/08 00:10:47;;;;;;;;;2.50;2.50;;;;;18.82;33.74;102719.69;5059019;28;45390;-64
2022/02/08 00:13:12;;;;;;;;;4.25;3.00;;;;;18.83;33.66;102724.06;5058573;28;45320;-65
2022/02/08 00:15:38;;;;;;;;;2.50;2.50;;;;;18.81;33.57;102717.94;5058693;28;45365;-63
2022/02/08 00:18:03;;;;;;;;;3.00;3.00;;;;;18.82;33.46;102717.06;5040711;28;45376;-62
2022/02/08 00:20:28;;;;;;;;;4.00;4.00;;;;;18.81;33.38;102712.69;5058491;28;46569;-65
2022/02/08 00:22:54;;;;;;;;;5.25;3.50;;;;;18.80;33.87;102721.47;5058588;28;45441;-65
2022/02/08 00:25:19;;;;;;;;;4.00;4.00;;;;;18.81;33.77;102720.59;5058924;28;45400;-64
2022/02/08 00:27:44;;;;;;;;;3.25;2.75;;;;;18.81;33.60;102717.09;5040700;28;45367;-63
2022/02/08 00:30:10;;;;;;;;;2.75;2.75;;;;;18.81;33.38;102712.69;5058507;28;46478;-65
2022/02/08 00:32:36;;;;;;;;;4.75;3.00;;;;;18.81;33.64;102712.69;5058536;28;45347;-62
2022/02/08 00:35:01;;;;;;;;;3.00;3.00;;;;;18.80;33.60;102713.59;5058429;28;45350;-63
2022/02/08 00:37:26;;;;;;;;;2.25;2.00;;;;;18.81;33.47;102717.94;5058557;28;45246;-65
2022/02/08 00:39:52;;;;;;;;;3.75;3.75;;;;;18.80;33.57;102710.97;5058337;28;45305;-64
2022/02/08 00:42:18;;;;;;;;;3.00;3.00;;;;;18.77;33.75;102704.91;5058661;28;45363;-64
2022/02/08 00:44:53;;;;;;;;;4.25;3.00;;;;;18.79;33.66;102711.00;5040333;28;45530;-63
2022/02/08 00:47:29;;;;;;;;;6.25;5.00;;;;;18.81;33.60;102711.84;5058823;28;45503;-63
2022/02/08 00:50:04;;;;;;;;;3.50;3.50;;;;;18.80;33.73;102715.38;5057912;28;47558;-64
2022/02/08 00:52:29;;;;;;;;;3.50;2.50;;;;;18.79;33.64;102709.25;5057116;28;45784;-65
2022/02/08 00:54:54;;;;;;;;;3.50;3.00;;;;;18.79;33.51;102709.25;5058209;28;45345;-66
2022/02/08 00:57:19;;;;;;;;;4.50;3.75;;;;;18.80;33.40;102704.84;5058621;28;45701;-63
2022/02/08 00:59:45;;;;;;;;;4.25;2.50;;;;;18.78;33.58;102701.38;5057879;28;45235;-63
2022/02/08 01:02:10;;;;;;;;;2.75;2.75;;;;;18.79;33.71;102711.88;5057889;28;45313;-62
2022/02/08 01:04:36;;;;;;;;;3.50;3.00;;;;;18.78;33.66;102710.16;5056720;28;45446;-65
2022/02/08 01:07:04;;;;;;;;;6.50;3.00;;;;;18.81;33.46;102709.22;5040065;28;45370;-65
2022/02/08 01:10:18;;;;;;;;;3.50;3.00;;;;;18.74;33.73;102707.59;5057798;28;46358;-65
2022/02/08 01:12:15;;;;;;;;;6.00;3.00;;;;;18.79;33.91;102716.25;5050276;28;45435;-64
2022/02/08 01:14:43;;;;;;;;;3.75;3.00;;;;;18.80;33.40;102720.63;5057715;28;45238;-64
2022/02/08 01:17:10;;;;;;;;;4.50;4.00;;;;;18.79;33.76;102719.78;5058156;28;45637;-65
2022/02/08 01:19:41;;;;;;;;;5.25;3.50;;;;;18.78;33.66;102712.78;5057621;28;46852;-62
2022/02/08 01:22:06;;;;;;;;;2.75;2.75;;;;;18.78;33.83;102718.03;5057758;28;45442;-62
2022/02/08 01:24:31;;;;;;;;;4.00;4.00;;;;;18.79;33.85;102719.78;5057716;28;45376;-65
2022/02/08 01:27:07;;;;;;;;;4.00;4.00;;;;;18.78;33.86;102733.78;5057841;28;45347;-62
2022/02/08 01:29:40;;;;;;;;;2.50;2.50;;;;;18.77;34.03;102723.28;5057783;28;46466;-64
2022/02/08 01:48:09;;;;;;;;;3.00;3.00;;;;;18.75;34.00;102738.22;5057465;28;45327;-65
2022/02/08 01:50:36;;;;;;;;;4.25;4.25;;;;;18.78;33.97;102743.41;5057001;28;46635;-63
2022/02/08 01:53:03;;;;;;;;;2.00;2.00;;;;;18.77;33.76;102741.69;5057146;28;45375;-62
2022/02/08 01:55:30;;;;;;;;;4.75;3.50;;;;;18.76;33.67;102740.81;5057186;28;45363;-64
2022/02/08 01:57:56;;;;;;;;;2.75;2.25;;;;;18.76;34.00;102740.81;5057512;28;45400;-63
2022/02/08 02:00:21;;;;;;;;;3.00;3.00;;;;;18.78;34.02;102739.03;5057190;28;45679;-64
2022/02/08 02:02:47;;;;;;;;;2.25;1.25;;;;;18.77;34.04;102739.94;5056581;28;45234;-64
2022/02/08 02:05:12;;;;;;;;;4.75;3.25;;;;;18.76;33.76;102734.69;5055871;28;45384;-64
2022/02/08 02:07:47;;;;;;;;;3.00;3.00;;;;;18.76;33.96;102737.31;5057381;28;45487;-63
2022/02/08 02:10:13;;;;;;;;;2.50;2.50;;;;;18.76;34.06;102738.19;5056684;28;47255;-63
2022/02/08 02:12:58;;;;;;;;;4.00;4.00;;;;;18.75;33.96;102728.59;5038841;28;45304;-64
2022/02/08 02:15:25;;;;;;;;;4.00;4.00;;;;;18.76;33.97;102735.56;5039147;28;45616;-65
2022/02/08 02:17:51;;;;;;;;;4.00;4.00;;;;;18.73;33.89;102730.38;5057426;28;45685;-66
2022/02/08 02:20:17;;;;;;;;;5.00;5.00;;;;;18.75;33.71;102733.84;5056634;28;46154;-65
2022/02/08 02:22:43;;;;;;;;;3.50;3.25;;;;;18.76;34.08;102732.06;5056783;28;45474;-65
2022/02/08 02:25:38;;;;;;;;;3.00;3.00;;;;;18.76;33.96;102730.31;5056850;28;45457;-64
2022/02/08 02:28:05;;;;;;;;;6.50;4.00;;;;;18.76;33.86;102732.06;5057110;28;45348;-64
2022/02/08 02:30:32;;;;;;;;;7.00;3.75;;;;;18.76;34.02;102735.56;5056592;28;46360;-65
2022/02/08 02:32:59;;;;;;;;;2.50;2.50;;;;;18.75;34.00;102727.69;5056716;28;45905;-62
2022/02/08 02:35:26;;;;;;;;;5.00;5.00;;;;;18.74;34.15;102726.84;5056980;28;45206;-64
2022/02/08 02:37:54;;;;;;;;;4.25;3.00;;;;;18.75;34.23;102733.84;5056662;28;45430;-65
2022/02/08 02:40:22;;;;;;;;;4.00;4.00;;;;;18.74;34.14;102731.25;5038354;28;47995;-64
2022/02/08 02:42:48;;;;;;;;;2.75;2.75;;;;;18.73;34.09;102725.13;5056417;28;45352;-65
2022/02/08 02:45:15;;;;;;;;;4.25;4.25;;;;;18.75;33.76;102727.69;5056706;28;45215;-65
2022/02/08 02:47:40;;;;;;;;;3.00;3.00;;;;;18.74;34.07;102724.22;5056778;28;45237;-67
2022/02/08 02:50:09;;;;;;;;;3.75;3.00;;;;;18.73;34.19;102714.59;5056247;28;46499;-63
2022/02/08 02:52:35;;;;;;;;;6.00;3.00;;;;;18.73;34.21;102716.38;5038338;28;46019;-64
2022/02/08 02:55:00;;;;;;;;;3.75;3.75;;;;;18.73;34.21;102711.97;5056344;28;45316;-62
2022/02/08 02:57:27;;;;;;;;;5.75;5.00;;;;;18.72;33.89;102712.88;5055585;28;45307;-64
2022/02/08 03:00:01;;;;;;;;;3.25;3.00;;;;;18.73;34.22;102713.75;5056153;28;45347;-64
2022/02/08 03:02:38;;;;;;;;;3.75;3.75;;;;;18.75;34.17;102717.19;5056682;28;45871;-62
2022/02/08 03:18:40;;;;;;;;;5.00;4.50;;;;;18.71;33.95;102721.63;5059992;28;45326;-66
2022/02/08 03:21:08;;;;;;;;;4.50;3.25;;;;;18.69;34.07;102718.16;5059593;28;46572;-66
2022/02/08 03:23:34;;;;;;;;;5.00;4.25;;;;;18.72;34.14;102720.75;5058284;28;46181;-65
2022/02/08 03:26:00;;;;;;;;;5.75;4.00;;;;;18.69;34.30;102719.06;5059402;28;45438;-63
2022/02/08 03:28:27;;;;;;;;;6.25;5.50;;;;;18.70;34.19;102725.16;5060028;28;45375;-66
2022/02/08 03:30:53;;;;;;;;;3.25;3.25;;;;;18.69;34.39;102718.16;5059306;28;46785;-64
2022/02/08 03:33:20;;;;;;;;;3.75;3.75;;;;;18.70;34.31;102726.03;5059577;28;45542;-66
2022/02/08 03:35:46;;;;;;;;;4.00;4.00;;;;;18.70;34.11;102719.91;5041515;28;45202;-64
2022/02/08 03:38:14;;;;;;;;;6.25;5.00;;;;;18.71;34.39;102726.91;5059534;28;45509;-64
2022/02/08 03:40:45;;;;;;;;;5.00;5.00;;;;;18.71;34.33;102721.63;5059283;28;46221;-65
2022/02/08 03:43:32;;;;;;;;;7.50;5.25;;;;;18.70;34.27;102725.16;5059278;28;45246;-62
2022/02/08 03:46:00;;;;;;;;;4.00;4.00;;;;;18.71;34.13;102726.91;5059059;28;45382;-63
2022/02/08 03:48:27;;;;;;;;;6.25;4.25;;;;;18.70;34.21;102735.66;5041721;28;45553;-64
2022/02/08 03:50:55;;;;;;;;;5.50;5.50;;;;;18.70;34.30;102735.66;5058974;28;46589;-64
2022/02/08 03:53:24;;;;;;;;;4.50;3.50;;;;;18.69;34.20;102736.56;5059011;28;45410;-64
2022/02/08 03:55:50;;;;;;;;;4.75;4.25;;;;;18.71;34.25;102740.03;5059310;28;45450;-64
2022/02/08 03:58:16;;;;;;;;;4.00;4.00;;;;;18.69;34.43;102732.19;5059422;28;45450;-64
2022/02/08 04:01:27;;;;;;;;;7.00;5.75;;;;;18.68;34.26;102726.97;5058828;28;46385;-64
2022/02/08 04:03:30;;;;;;;;;5.25;5.25;;;;;18.67;34.25;102730.50;5058878;28;45867;-63
2022/02/08 04:05:58;;;;;;;;;4.00;4.00;;;;;18.69;34.23;102733.94;5041570;28;45268;-64
2022/02/08 04:08:23;;;;;;;;;4.25;4.25;;;;;18.71;34.36;102737.41;5059154;28;45332;-64
2022/02/08 04:10:49;;;;;;;;;4.50;3.75;;;;;18.69;34.30;102728.69;5058746;28;47022;-63
2022/02/08 04:13:22;;;;;;;;;4.00;3.00;;;;;18.68;34.21;102732.22;5058823;28;45382;-65
2022/02/08 04:32:10;;;;;;;;;4.00;4.00;;;;;18.65;34.40;102737.53;5058628;28;45229;-64
2022/02/08 04:35:34;;;;;;;;;8.00;4.00;;;;;18.66;34.39;102740.09;5058085;28;45159;-64
2022/02/08 04:42:49;;;;;;;;;5.00;3.75;;;;;18.63;34.54;102729.66;5058177;28;45304;-63
2022/02/08 04:47:58;;;;;;;;;4.25;4.25;;;;;18.67;34.58;102730.50;5058641;28;45391;-62
2022/02/08 04:50:25;;;;;;;;;3.00;3.00;;;;;18.63;34.35;102731.41;5058397;28;45459;-64
2022/02/08 04:52:54;;;;;;;;;4.50;3.25;;;;;18.66;34.40;102729.59;5058219;28;46523;-63
2022/02/08 05:00:43;;;;;;;;;4.50;4.50;;;;;18.66;34.67;102719.09;5058185;28;45311;-64
2022/02/08 05:37:14;;;;;;;;;3.50;3.50;;;;;18.66;34.94;102744.50;5057380;28;45878;-65
2022/02/08 05:44:26;;;;;;;;;5.75;5.00;;;;;18.64;34.82;102728.75;5057812;28;45313;-62
2022/02/08 05:46:53;;;;;;;;;3.00;3.00;;;;;18.64;34.69;102736.63;5057571;28;46350;-64
2022/02/08 05:52:45;;;;;;;;;6.00;5.50;;;;;18.60;34.79;102723.59;5057636;28;45326;-63
2022/02/08 05:54:48;;;;;;;;;5.00;3.75;;;;;18.63;34.73;102720.91;5056978;28;45610;-63
2022/02/08 05:57:13;;;;;;;;;4.00;3.25;;;;;18.64;34.90;102715.63;5057150;28;46561;-63
2022/02/08 05:59:39;;;;;;;;;3.50;3.00;;;;;18.65;34.94;102721.75;5057314;28;45401;-65
2022/02/08 06:02:04;;;;;;;;;5.25;4.00;;;;;18.64;34.77;102718.25;5057469;28;45359;-65
2022/02/08 06:04:34;;;;;;;;;3.00;3.00;;;;;18.63;34.85;102713.03;5057454;28;45192;-62
2022/02/08 06:06:59;;;;;;;;;4.00;4.00;;;;;18.63;34.94;102713.03;5056916;28;45378;-64
2022/02/08 06:09:24;;;;;;;;;5.00;2.25;;;;;18.64;34.94;102712.16;5057045;28;45474;-65
2022/02/08 06:11:50;;;;;;;;;3.75;3.75;;;;;18.64;34.87;102725.28;5056969;28;45447;-65
2022/02/08 06:14:24;;;;;;;;;4.50;3.00;;;;;18.63;34.74;102718.28;5057023;28;45518;-65
2022/02/08 06:16:49;;;;;;;;;3.00;3.00;;;;;18.63;35.01;102718.28;5056915;28;45387;-66
2022/02/08 06:19:14;;;;;;;;;3.00;3.00;;;;;18.63;34.97;102713.03;5056762;28;45332;-63
2022/02/08 06:21:40;;;;;;;;;5.00;3.00;;;;;18.64;35.16;102714.78;5056669;28;45771;-63
2022/02/08 06:24:05;;;;;;;;;3.00;3.00;;;;;18.64;35.01;102710.38;5057276;28;45556;-62
2022/02/08 06:26:31;;;;;;;;;3.25;2.50;;;;;18.62;34.74;102717.44;5038518;28;47352;-64
2022/02/08 06:29:23;;;;;;;;;4.00;4.00;;;;;18.64;34.91;102725.28;5038493;28;45407;-63
2022/02/08 06:31:44;;;;;;;;;3.00;3.00;;;;;18.65;34.89;102722.63;5055426;28;45301;-65
2022/02/08 06:34:10;;;;;;;;;2.25;2.25;;;;;18.64;35.02;102720.88;5056674;28;45322;-64
2022/02/08 06:36:36;;;;;;;;;3.75;3.75;;;;;18.64;35.25;102723.50;5038890;28;46585;-65
2022/02/08 06:39:02;;;;;;;;;3.50;3.50;;;;;18.64;34.79;102720.88;5056402;28;45490;-66
2022/02/08 06:41:28;;;;;;;;;3.50;3.00;;;;;18.63;34.96;102724.41;5056648;28;45325;-65
2022/02/08 06:43:53;;;;;;;;;3.00;3.00;;;;;18.64;35.24;102725.28;5056738;28;45369;-65
2022/02/08 06:46:18;;;;;;;;;2.50;2.50;;;;;18.63;35.18;102728.78;5056297;28;45508;-63
2022/02/08 06:48:44;;;;;;;;;3.00;3.00;;;;;18.65;35.15;102732.25;5056319;28;45375;-63
2022/02/08 06:51:09;;;;;;;;;1.75;1.75;;;;;18.65;35.10;102737.53;5056622;28;45257;-63
2022/02/08 06:53:35;;;;;;;;;3.25;3.00;;;;;18.65;35.41;102737.53;5056539;28;45513;-66
2022/02/08 06:56:02;;;;;;;;;2.75;2.75;;;;;18.64;35.04;102735.78;5056234;28;46273;-64
2022/02/08 06:58:35;;;;;;;;;2.25;2.25;;;;;18.65;35.48;102745.41;5056177;28;45248;-65
2022/02/08 07:01:03;;;;;;;;;3.00;3.00;;;;;18.64;35.51;102748.91;5056229;28;45327;-65
2022/02/08 07:03:30;;;;;;;;;2.50;2.25;;;;;18.66;35.06;102752.38;5056487;28;45331;-63
2022/02/08 07:05:55;;;;;;;;;2.75;2.00;;;;;18.66;35.81;102749.75;5054827;28;48110;-65
2022/02/08 07:08:20;;;;;;;;;3.00;3.00;;;;;18.64;35.48;102752.41;5056118;28;45231;-65
2022/02/08 07:10:46;;;;;;;;;2.25;2.25;;;;;18.63;35.48;102749.81;5056226;28;45387;-62
2022/02/08 07:13:11;;;;;;;;;2.00;2.00;;;;;18.65;35.33;102756.75;5056463;28;45431;-62
2022/02/08 07:15:38;;;;;;;;;4.75;3.00;;;;;18.65;35.30;102755.91;5055802;28;46138;-64
2022/02/08 07:18:03;;;;;;;;;4.75;2.25;;;;;18.65;35.83;102754.13;5056040;28;45910;-63
2022/02/08 07:20:32;;;;;;;;;3.00;2.00;;;;;18.66;35.40;102760.28;5055910;28;46828;-64
2022/02/08 07:22:57;;;;;;;;;3.50;2.50;;;;;18.61;35.90;102757.72;5056301;28;45442;-64
2022/02/08 07:25:23;;;;;;;;;2.25;2.25;;;;;18.64;35.44;102762.03;5054572;28;46938;-63
2022/02/08 07:27:48;;;;;;;;;2.25;1.25;;;;;18.64;35.44;102770.78;5056040;28;45231;-66
2022/02/08 07:30:13;;;;;;;;;4.25;3.00;;;;;18.61;35.49;102772.59;5056097;28;45221;-64
2022/02/08 07:32:41;;;;;;;;;3.25;2.25;;;;;18.62;35.63;102769.97;5056516;28;45560;-63
2022/02/08 07:37:47;;;;;;;;;2.00;2.00;;;;;18.63;35.71;102771.66;5055941;28;45379;-64
2022/02/08 07:43:12;;;;;;;;;4.50;3.00;;;;;18.62;35.99;102772.59;5044049;28;46182;-64
2022/02/08 07:45:37;;;;;;;;;2.00;1.00;;;;;18.63;35.71;102776.06;5037990;28;47831;-63
2022/02/08 07:48:03;;;;;;;;;2.50;2.25;;;;;18.63;35.78;102773.44;5055686;28;45350;-63
2022/02/08 07:50:28;;;;;;;;;3.00;3.00;;;;;18.65;35.55;102779.53;5055603;28;45310;-64
2022/02/08 07:52:53;;;;;;;;;2.75;2.75;;;;;18.63;35.84;102771.66;5055798;28;45510;-63
2022/02/08 07:55:20;;;;;;;;;1.00;1.00;;;;;18.64;35.65;102773.41;5055294;28;46510;-65
2022/02/08 07:57:46;;;;;;;;;1.25;1.25;;;;;18.64;35.91;102773.41;5055652;28;45864;-64
2022/02/08 08:00:12;;;;;;;;;3.00;3.00;;;;;18.61;35.71;102767.34;5056616;28;45260;-64
2022/02/08 08:02:38;;;;;;;;;2.00;2.00;;;;;18.65;35.55;102779.53;5059045;28;45246;-62
2022/02/08 08:05:04;;;;;;;;;1.00;1.00;;;;;18.62;35.67;102769.06;5058776;28;46138;-63
2022/02/08 08:07:29;;;;;;;;;2.00;2.00;;;;;18.63;35.79;102760.31;5058868;28;45355;-63
2022/02/08 08:09:55;;;;;;;;;1.50;1.50;;;;;18.61;35.70;102762.09;5057565;28;45252;-63
2022/02/08 08:12:22;;;;;;;;;2.00;2.00;;;;;18.62;36.03;102769.06;5041041;28;45384;-62
2022/02/08 08:14:48;;;;;;;;;1.00;1.00;;;;;18.64;35.74;102767.31;5040425;28;47476;-64
2022/02/08 08:19:56;;;;;;;;;2.00;1.00;;;;;18.64;35.95;102765.53;5058864;28;45229;-63
2022/02/08 08:22:38;;;;;;;;;2.00;1.25;;;;;18.64;35.65;102762.91;5058966;28;45375;-65
2022/02/08 08:25:05;;;;;;;;;2.00;2.00;;;;;18.62;36.06;102758.56;5057347;28;46354;-64
2022/02/08 08:27:30;;;;;;;;;2.00;2.00;;;;;18.63;36.06;102760.31;5058595;28;45820;-63
2022/02/08 08:29:59;;;;;;;;;4.00;2.25;;;;;18.64;36.01;102760.28;5058853;28;45166;-62
2022/02/08 08:32:25;;;;;;;;;1.25;1.25;;;;;18.65;35.81;102758.53;5059139;28;45393;-62
2022/02/08 08:34:50;;;;;;;;;1.25;1.00;;;;;18.63;36.11;102765.56;5058483;28;46261;-62
2022/02/08 08:37:15;;;;;;;;;1.00;1.00;;;;;18.62;35.72;102762.09;5058322;28;45482;-63
2022/02/08 08:39:50;;;;;;;;;2.00;2.00;;;;;18.61;35.78;102765.59;5058889;28;45875;-63
2022/02/08 08:42:34;;;;;;;;;1.50;1.25;;;;;18.63;35.86;102765.56;5058783;28;45354;-63
2022/02/08 08:48:23;;;;;;;;;2.00;2.00;;;;;18.62;35.91;102755.94;5058243;28;47404;-63
2022/02/08 08:50:53;;;;;;;;;3.00;3.00;;;;;18.62;35.84;102772.59;5058411;28;45363;-63
2022/02/08 08:53:17;;;;;;;;;1.50;1.50;;;;;18.63;36.30;102778.69;5057941;28;45327;-65
2022/02/08 08:55:42;;;;;;;;;4.50;3.25;;;;;18.62;35.84;102774.34;5058151;28;45487;-62
2022/02/08 08:58:08;;;;;;;;;2.25;1.25;;;;;18.62;36.14;102780.47;5058069;28;45348;-64
2022/02/08 09:00:33;;;;;;;;;3.00;2.00;;;;;18.63;36.07;102776.91;5058291;28;45371;-62
2022/02/08 09:02:58;;;;;;;;;1.00;1.00;;;;;18.58;36.09;102768.25;5057028;28;45574;-63
2022/02/08 09:05:24;;;;;;;;;1.00;1.00;;;;;18.61;36.37;102769.97;5039697;28;46324;-62
2022/02/08 09:07:49;;;;;;;;;1.75;1.25;;;;;18.62;36.17;102769.97;5058068;28;45295;-63
2022/02/08 09:10:19;;;;;;;;;4.25;1.50;;;;;18.62;36.11;102779.59;5058428;28;45376;-63
2022/02/08 09:20:22;;;;;;;;;3.00;2.50;;;;;18.60;36.27;102770.84;5057749;28;45507;-64
2022/02/08 09:28:08;;;;;;;;;2.00;2.00;;;;;18.61;36.28;102762.97;5057712;28;45527;-64
2022/02/08 09:30:39;;;;;;;;;2.00;2.00;;;;;18.59;36.34;102764.75;5039630;28;45543;-65
2022/02/08 09:33:05;;;;;;;;;2.75;2.75;;;;;18.60;36.05;102766.50;5057866;28;45529;-62
2022/02/08 09:35:31;;;;;;;;;3.50;2.00;;;;;18.62;36.00;102771.72;5055470;28;47737;-65
2022/02/08 09:37:56;;;;;;;;;4.50;2.50;;;;;18.59;35.95;102766.50;5057750;28;45343;-65
2022/02/08 09:40:25;;;;;;;;;2.00;2.00;;;;;18.60;36.08;102762.97;5057783;28;45799;-62
2022/02/08 09:42:53;;;;;;;;;4.25;2.25;;;;;18.60;36.15;102768.22;5057843;28;45577;-65
2022/02/08 09:45:20;;;;;;;;;3.00;2.00;;;;;18.62;36.01;102763.81;5055871;28;46336;-63
2022/02/08 09:47:58;;;;;;;;;2.50;2.50;;;;;18.59;36.02;102758.63;5039737;28;45924;-62
2022/02/08 09:50:28;;;;;;;;;3.00;2.00;;;;;18.62;36.24;102769.06;5057264;28;45352;-64
2022/02/08 09:52:58;;;;;;;;;5.00;3.75;;;;;18.62;36.17;102774.34;5057660;28;45335;-63
2022/02/08 09:55:26;;;;;;;;;3.25;2.50;;;;;18.61;36.28;102769.97;5057216;28;46189;-65
2022/02/08 09:57:52;;;;;;;;;5.00;3.25;;;;;18.59;36.04;102767.38;5057337;28;45368;-63
2022/02/08 10:00:19;;;;;;;;;4.00;3.00;;;;;18.59;36.17;102763.88;5057722;28;45343;-63
2022/02/08 10:02:45;;;;;;;;;4.00;2.00;;;;;18.59;36.07;102761.25;5057746;28;45337;-64
2022/02/08 10:05:11;;;;;;;;;2.00;2.00;;;;;18.60;36.29;102762.97;5057047;28;46084;-63
2022/02/08 10:07:37;;;;;;;;;2.00;1.75;;;;;18.61;36.30;102765.59;5057152;28;45280;-63
2022/02/08 10:10:06;;;;;;;;;3.00;3.00;;;;;18.58;36.27;102757.75;5039123;28;45281;-63
2022/02/08 10:23:57;;;;;;;;;2.00;2.00;;;;;18.60;36.15;102758.63;5037398;28;45297;-63
2022/02/08 10:26:32;;;;;;;;;2.00;2.00;;;;;18.60;36.38;102768.22;5056814;28;46300;-64
2022/02/08 10:29:01;;;;;;;;;5.00;3.00;;;;;18.61;36.19;102767.34;5056790;28;45849;-62
2022/02/08 10:40:23;;;;;;;;;4.50;3.00;;;;;18.62;36.38;102766.44;5056941;28;45916;-63
2022/02/08 10:42:59;;;;;;;;;4.25;3.00;;;;;18.61;36.53;102767.34;5050638;28;45510;-62
2022/02/08 10:45:33;;;;;;;;;3.75;3.75;;;;;18.61;36.47;102762.09;5038602;28;45579;-63
2022/02/08 10:48:10;;;;;;;;;1.50;1.50;;;;;18.62;36.32;102764.72;5056437;28;46457;-65
2022/02/08 10:50:43;;;;;;;;;3.00;3.00;;;;;18.62;36.34;102759.47;5040117;28;45376;-63
2022/02/08 10:53:11;;;;;;;;;2.00;2.00;;;;;18.61;36.51;102765.59;5056638;28;45461;-63
2022/02/08 10:58:28;;;;;;;;;3.00;3.00;;;;;18.62;36.40;102769.06;5056361;28;45917;-62
2022/02/08 11:03:43;;;;;;;;;4.00;4.00;;;;;18.59;36.43;102758.63;5056385;28;45384;-63
2022/02/08 11:11:57;;;;;;;;;3.00;3.00;;;;;18.63;36.45;102758.53;5056250;28;45374;-62
2022/02/08 11:25:09;;;;;;;;;3.00;3.00;;;;;18.61;36.53;102738.44;5056135;28;45375;-63
2022/02/08 11:27:46;;;;;;;;;3.00;3.00;;;;;18.61;36.50;102741.97;5038036;28;45415;-64
2022/02/08 11:30:16;;;;;;;;;2.00;1.00;;;;;18.62;36.41;102743.69;5054504;28;48238;-64
2022/02/08 11:33:13;;;;;;;;;2.00;2.00;;;;;18.64;36.67;102748.91;5055864;28;45419;-65
2022/02/08 11:46:37;;;;;;;;;2.25;2.25;;;;;18.63;36.61;102726.16;5059519;28;45289;-62
2022/02/08 11:59:28;;;;;;;;;5.00;5.00;;;;;18.64;36.58;102709.53;5059445;28;45512;-64
2022/02/08 12:33:29;;;;;;;;;2.25;2.25;;;;;18.64;36.49;102678.00;5058828;28;45383;-64
2022/02/08 12:36:27;;;;;;;;;3.00;3.00;;;;;18.65;36.74;102674.50;5058688;28;45383;-63
2022/02/08 13:01:01;;;;;;;;;2.25;2.25;;;;;18.66;36.90;102644.72;5053181;28;45395;-63
2022/02/08 13:20:15;;;;;;;;;2.50;2.50;;;;;18.65;36.98;102612.31;5057763;28;46090;-64
2022/02/08 14:03:56;;;;;;;;;3.00;2.00;;;;;18.66;37.25;102607.94;5057487;28;45869;-63
2022/02/08 14:06:21;;;;;;;;;2.50;2.50;;;;;18.66;37.11;102603.53;5057186;28;45487;-64
2022/02/08 14:17:12;;;;;;;;;1.00;1.00;;;;;18.67;36.79;102593.91;5057358;28;45352;-64
2022/02/08 14:19:39;;;;;;;;;1.50;1.50;;;;;18.65;37.20;102591.28;5057047;28;45312;-64
2022/02/08 14:30:13;;;;;;;;;2.25;1.00;;;;;18.68;37.11;102593.03;5057315;28;45390;-63
2022/02/08 15:10:10;;;;;;;;;1.25;1.00;;;;;18.66;37.60;102584.31;5057053;28;45787;-64
2022/02/08 15:12:41;;;;;;;;;3.00;2.00;;;;;18.65;37.42;102585.19;5060273;28;45482;-65
2022/02/08 15:15:29;;;;;;;;;2.00;2.00;;;;;18.66;37.33;102584.31;5059762;28;46533;-65
2022/02/08 15:17:54;;;;;;;;;2.00;2.00;;;;;18.64;37.54;102579.06;5059816;28;45922;-65
2022/02/08 15:20:21;;;;;;;;;2.50;2.00;;;;;18.64;37.28;102581.69;5059872;28;45442;-66
2022/02/08 15:22:46;;;;;;;;;1.75;1.75;;;;;18.65;37.41;102593.06;5059945;28;45366;-63
2022/02/08 15:25:14;;;;;;;;;1.50;1.50;;;;;18.66;37.24;102592.19;5059610;28;46328;-64
2022/02/08 15:27:41;;;;;;;;;5.50;2.75;;;;;18.65;37.35;102582.56;5059864;28;45914;-63
2022/02/08 15:30:08;;;;;;;;;2.75;2.00;;;;;18.66;37.35;102589.56;5059638;28;45278;-66
2022/02/08 15:32:35;;;;;;;;;2.00;2.00;;;;;18.64;37.67;102580.84;5060212;28;45482;-65
2022/02/08 15:35:01;;;;;;;;;2.25;2.25;;;;;18.62;37.28;102578.25;5059416;28;45813;-63
2022/02/08 15:37:30;;;;;;;;;1.00;1.00;;;;;18.63;37.42;102587.81;5041413;28;45935;-63
2022/02/08 15:39:59;;;;;;;;;2.00;2.00;;;;;18.65;37.29;102587.81;5041513;28;45254;-64
2022/02/08 15:42:30;;;;;;;;;1.50;1.50;;;;;18.64;37.47;102586.09;5059690;28;45981;-65
2022/02/08 15:44:57;;;;;;;;;2.00;2.00;;;;;18.64;37.54;102588.72;5059368;28;45700;-64
2022/02/08 15:47:23;;;;;;;;;1.25;1.25;;;;;18.66;37.59;102581.69;5059261;28;45274;-64
2022/02/08 15:49:57;;;;;;;;;1.75;1.75;;;;;18.65;37.44;102590.44;5059203;28;45642;-63
2022/02/08 15:52:40;;;;;;;;;2.50;2.50;;;;;18.63;37.63;102582.56;5059506;28;45381;-64
2022/02/08 15:55:12;;;;;;;;;2.00;2.00;;;;;18.62;37.49;102580.88;5059012;28;45385;-64
2022/02/08 15:58:25;;;;;;;;;1.50;1.25;;;;;18.65;37.38;102582.56;5059289;28;45797;-63
2022/02/08 16:09:24;;;;;;;;;2.00;2.00;;;;;18.63;37.50;102573.84;5058893;28;46000;-62
2022/02/08 16:16:23;;;;;;;;;1.75;1.75;;;;;18.63;37.69;102576.47;5058643;28;45327;-62
2022/02/08 16:19:16;;;;;;;;;2.00;2.00;;;;;18.63;37.48;102585.19;5058461;28;46009;-65
2022/02/08 16:27:33;;;;;;;;;3.75;2.00;;;;;18.60;38.04;102577.41;5038796;28;46288;-63
2022/02/08 16:59:23;;;;;;;;;5.75;2.00;;;;;19.43;38.48;102576.56;5057782;28;45793;-65
2022/02/08 17:01:50;;;;;;;;;1.75;1.75;;;;;19.54;38.36;102597.38;5039841;28;45900;-63
2022/02/08 17:04:15;;;;;;;;;3.00;3.00;;;;;19.62;38.14;102596.28;5058246;28;45351;-65
2022/02/08 17:06:40;;;;;;;;;2.25;1.50;;;;;19.69;38.37;102590.88;5058160;28;45634;-62
2022/02/08 17:09:14;;;;;;;;;1.75;1.75;;;;;19.74;37.92;102587.25;5058187;28;46471;-69
2022/02/08 17:11:48;;;;;;;;;3.00;2.75;;;;;19.81;38.05;102590.59;5039609;28;45810;-68
2022/02/08 17:17:02;;;;;;;;;1.00;1.00;;;;;19.95;37.76;102592.91;5058284;28;45448;-64
2022/02/08 17:37:17;;;;;;;;;2.00;2.00;;;;;20.30;37.42;102577.97;5058145;28;45371;-62
2022/02/08 17:47:13;;;;;;;;;2.25;2.00;;;;;20.48;37.42;102583.63;5057575;28;45449;-63
2022/02/08 17:49:39;;;;;;;;;3.00;1.75;;;;;20.52;37.30;102591.41;5058070;28;45166;-66
2022/02/08 17:52:05;;;;;;;;;1.25;1.25;;;;;20.57;37.20;102590.44;5057271;28;45252;-63
2022/02/08 17:54:31;;;;;;;;;2.25;2.25;;;;;20.61;36.94;102590.31;5057199;28;45786;-64
2022/02/08 17:56:57;;;;;;;;;2.75;2.75;;;;;20.65;36.92;102599.84;5057304;28;45439;-65
2022/02/08 17:59:24;;;;;;;;;1.00;1.00;;;;;20.68;37.30;102599.75;5057413;28;45369;-65
2022/02/08 18:01:50;;;;;;;;;2.75;2.75;;;;;20.72;37.20;102594.41;5056762;28;45428;-63
2022/02/08 18:04:16;;;;;;;;;3.50;2.00;;;;;20.75;37.02;102597.84;5057084;28;45961;-69
2022/02/08 18:06:41;;;;;;;;;1.75;1.75;;;;;20.77;37.20;102595.19;5057390;28;45404;-63
2022/02/08 18:09:07;;;;;;;;;3.00;1.25;;;;;20.80;37.35;102598.59;5057721;28;45628;-60
2022/02/08 18:11:38;;;;;;;;;1.00;1.00;;;;;20.81;37.01;102597.69;5056997;28;45273;-59
2022/02/08 18:14:06;;;;;;;;;2.25;2.25;;;;;20.85;36.97;102598.47;5056859;28;45816;-60
2022/02/08 18:16:34;;;;;;;;;2.00;2.00;;;;;20.83;36.53;102598.50;5057281;28;45349;-66
2022/02/08 18:19:08;;;;;;;;;2.00;2.00;;;;;20.87;37.04;102596.66;5057150;28;45547;-65
2022/02/08 18:21:38;;;;;;;;;2.00;2.00;;;;;20.87;36.48;102598.41;5056938;28;45407;-67
2022/02/08 18:55:38;;;;;;;;;2.00;2.00;;;;;21.04;36.40;102605.81;5056509;28;45450;-64
2022/02/08 19:07:59;;;;;;;;;4.00;2.75;;;;;21.07;36.86;102608.38;4994418;28;45418;-61
2022/02/08 19:23:29;;;;;;;;;3.25;3.25;;;;;20.99;36.55;102593.66;5056295;28;45318;-62
2022/02/08 19:25:55;;;;;;;;;4.00;4.00;;;;;20.97;36.81;102598.09;5037926;28;47548;-61
2022/02/08 19:28:20;;;;;;;;;4.00;4.00;;;;;20.97;36.33;102600.75;5056006;28;45429;-61
2022/02/08 19:30:45;;;;;;;;;4.75;4.75;;;;;20.95;36.26;102599.91;5038236;28;45194;-60
2022/02/08 19:33:11;;;;;;;;;3.25;3.25;;;;;20.95;36.96;102597.28;5055292;28;45256;-60
2022/02/08 19:35:36;;;;;;;;;4.50;4.50;;;;;20.93;36.32;102598.25;5037747;28;47464;-62